createdAt,value
2022-09-02T00:00:58.903Z,63.21
2022-09-02T00:01:59.012Z,61.90
2022-09-02T00:02:58.999Z,61.90
2022-09-02T00:03:58.863Z,62.30
2022-09-02T00:04:58.864Z,62.40
2022-09-02T00:05:58.957Z,63.21
2022-09-02T00:06:58.836Z,62.90
2022-09-02T00:07:59.256Z,63.01
2022-09-02T00:08:58.846Z,62.90
2022-09-02T00:09:58.779Z,62.50
2022-09-02T00:10:59.001Z,63.21
2022-09-02T00:11:58.791Z,62.30
2022-09-02T00:12:58.785Z,62.81
2022-09-02T00:13:58.759Z,61.90
2022-09-02T00:14:58.963Z,62.30
2022-09-02T00:15:58.744Z,63.81
2022-09-02T00:16:58.811Z,63.81
2022-09-02T00:17:59.111Z,63.01
2022-09-02T00:18:58.727Z,63.75
2022-09-02T00:19:58.708Z,62.63
2022-09-02T00:20:58.722Z,63.04
2022-09-02T00:21:58.685Z,63.13
2022-09-02T00:22:58.791Z,63.04
2022-09-02T00:23:58.661Z,63.13
2022-09-02T00:24:58.681Z,62.53
2022-09-02T00:25:58.735Z,63.84
2022-09-02T00:26:58.613Z,63.75
2022-09-02T00:27:58.610Z,63.04
2022-09-02T00:28:58.612Z,63.24
2022-09-02T00:29:58.612Z,63.13
2022-09-02T00:30:58.572Z,63.04
2022-09-02T00:31:58.701Z,63.13
2022-09-02T00:32:58.744Z,63.54
2022-09-02T00:33:58.767Z,64.35
2022-09-02T00:34:58.754Z,64.55
2022-09-02T00:35:58.645Z,64.04
2022-09-02T00:36:58.675Z,64.18
2022-09-02T00:37:58.588Z,63.37
2022-09-02T00:38:58.524Z,63.13
2022-09-02T00:39:58.521Z,63.04
2022-09-02T00:40:58.652Z,62.86
2022-09-02T00:41:58.503Z,63.07
2022-09-02T00:42:58.594Z,63.47
2022-09-02T00:43:58.620Z,63.98
2022-09-02T00:44:58.489Z,62.86
2022-09-02T00:45:58.472Z,63.07
2022-09-02T00:46:58.680Z,63.78
2022-09-02T00:47:58.453Z,63.87
2022-09-02T00:48:58.664Z,63.57
2022-09-02T00:49:58.524Z,64.18
2022-09-02T00:50:58.591Z,64.28
2022-09-02T00:51:58.420Z,64.38
2022-09-02T00:52:58.562Z,65.59
2022-09-02T00:53:58.502Z,64.69
2022-09-02T00:54:58.439Z,65.50
2022-09-02T00:55:58.372Z,64.89
2022-09-02T00:56:58.403Z,64.79
2022-09-02T00:57:58.395Z,64.58
2022-09-02T00:58:58.623Z,63.17
2022-09-02T00:59:58.348Z,63.57
2022-09-02T01:00:58.532Z,64.28
2022-09-02T01:01:58.700Z,65.29
2022-09-02T01:02:58.510Z,64.38
2022-09-02T01:03:58.468Z,63.67
2022-09-02T01:04:58.435Z,64.28
2022-09-02T01:05:58.426Z,63.47
2022-09-02T01:06:58.276Z,64.89
2022-09-02T01:07:58.429Z,65.50
2022-09-02T01:08:58.420Z,64.58
2022-09-02T01:09:58.246Z,65.59
2022-09-02T01:10:58.257Z,64.48
2022-09-02T01:11:58.448Z,64.89
2022-09-02T01:12:58.433Z,65.90
2022-09-02T01:13:58.190Z,65.50
2022-09-02T01:14:58.193Z,66.24
2022-09-02T01:15:58.435Z,65.73
2022-09-02T01:16:58.175Z,65.22
2022-09-02T01:17:58.202Z,65.42
2022-09-02T01:18:58.162Z,65.62
2022-09-02T01:19:58.109Z,65.32
2022-09-02T01:20:58.104Z,65.02
2022-09-02T01:21:58.208Z,65.12
2022-09-02T01:22:58.152Z,65.42
2022-09-02T01:23:58.171Z,64.61
2022-09-02T01:24:58.079Z,65.96
2022-09-02T01:25:58.182Z,65.66
2022-09-02T01:26:58.029Z,65.96
2022-09-02T01:27:58.213Z,66.57
2022-09-02T01:28:58.211Z,65.76
2022-09-02T01:29:58.027Z,65.45
2022-09-02T01:30:57.994Z,65.76
2022-09-02T01:31:58.046Z,65.36
2022-09-02T01:32:57.973Z,65.66
2022-09-02T01:33:58.231Z,66.27
2022-09-02T01:34:58.395Z,66.88
2022-09-02T01:35:58.043Z,65.96
2022-09-02T01:36:57.922Z,65.66
2022-09-02T01:37:58.022Z,65.28
2022-09-02T01:38:57.984Z,65.79
2022-09-02T01:39:58.130Z,66.50
2022-09-02T01:40:58.164Z,67.21
2022-09-02T01:41:57.941Z,66.80
2022-09-02T01:42:57.878Z,67.72
2022-09-02T01:43:57.883Z,68.32
2022-09-02T01:44:57.967Z,67.61
2022-09-02T01:45:58.032Z,67.72
2022-09-02T01:46:58.097Z,66.91
2022-09-02T01:47:57.809Z,67.14
2022-09-02T01:48:57.836Z,67.75
2022-09-02T01:49:57.879Z,67.95
2022-09-02T01:50:57.984Z,66.74
2022-09-02T01:51:57.818Z,68.35
2022-09-02T01:52:57.895Z,69.17
2022-09-02T01:53:57.870Z,68.96
2022-09-02T01:54:57.829Z,69.27
2022-09-02T01:55:57.772Z,67.88
2022-09-02T01:56:57.761Z,68.70
2022-09-02T01:57:57.737Z,67.58
2022-09-02T01:58:57.795Z,68.49
2022-09-02T01:59:57.728Z,68.08
2022-09-02T02:00:58.053Z,68.49
2022-09-02T02:01:58.142Z,68.59
2022-09-02T02:02:57.648Z,68.79
2022-09-02T02:03:58.005Z,69.40
2022-09-02T02:04:57.762Z,69.00
2022-09-02T02:05:57.665Z,69.30
2022-09-02T02:06:57.716Z,68.42
2022-09-02T02:07:57.654Z,69.23
2022-09-02T02:08:57.960Z,69.23
2022-09-02T02:09:57.604Z,70.35
2022-09-02T02:10:57.660Z,69.23
2022-09-02T02:11:57.664Z,68.93
2022-09-02T02:12:57.605Z,69.84
2022-09-02T02:13:57.548Z,69.74
2022-09-02T02:14:57.745Z,70.45
2022-09-02T02:15:57.822Z,68.93
2022-09-02T02:16:57.578Z,68.73
2022-09-02T02:17:57.721Z,69.03
2022-09-02T02:18:57.541Z,68.73
2022-09-02T02:19:57.532Z,68.83
2022-09-02T02:20:57.619Z,69.84
2022-09-02T02:21:57.524Z,69.54
2022-09-02T02:22:57.600Z,68.12
2022-09-02T02:23:57.630Z,69.34
2022-09-02T02:24:57.620Z,69.74
2022-09-02T02:25:57.583Z,70.45
2022-09-02T02:26:57.629Z,70.55
2022-09-02T02:27:57.458Z,70.65
2022-09-02T02:28:57.569Z,68.73
2022-09-02T02:29:57.668Z,68.62
2022-09-02T02:30:57.591Z,69.13
2022-09-02T02:31:57.470Z,69.23
2022-09-02T02:32:57.413Z,69.64
2022-09-02T02:33:57.539Z,71.16
2022-09-02T02:34:57.383Z,70.55
2022-09-02T02:35:57.484Z,70.55
2022-09-02T02:36:57.664Z,70.65
2022-09-02T02:37:57.365Z,70.25
2022-09-02T02:38:57.385Z,70.55
2022-09-02T02:39:57.397Z,69.95
2022-09-02T02:40:57.325Z,70.04
2022-09-02T02:41:57.354Z,69.95
2022-09-02T02:42:57.314Z,69.95
2022-09-02T02:43:57.483Z,69.74
2022-09-02T02:44:57.399Z,69.03
2022-09-02T02:45:57.574Z,70.04
2022-09-02T02:46:57.447Z,69.37
2022-09-02T02:47:57.279Z,69.47
2022-09-02T02:48:57.321Z,70.38
2022-09-02T02:49:57.563Z,70.79
2022-09-02T02:50:57.530Z,69.67
2022-09-02T02:51:57.326Z,69.57
2022-09-02T02:52:57.342Z,69.78
2022-09-02T02:53:58.960Z,69.98
2022-09-02T02:54:57.176Z,68.76
2022-09-02T02:55:57.225Z,70.18
2022-09-02T02:56:57.292Z,69.87
2022-09-02T02:57:57.309Z,69.57
2022-09-02T02:58:57.287Z,70.18
2022-09-02T02:59:57.130Z,70.08
2022-09-02T03:00:57.115Z,69.78
2022-09-02T03:01:57.458Z,70.28
2022-09-02T03:02:57.234Z,69.67
2022-09-02T03:03:57.151Z,69.87
2022-09-02T03:04:57.236Z,69.98
2022-09-02T03:05:57.239Z,70.79
2022-09-02T03:06:57.150Z,71.09
2022-09-02T03:07:57.248Z,70.59
2022-09-02T03:08:57.156Z,69.37
2022-09-02T03:09:57.050Z,70.28
2022-09-02T03:10:57.228Z,71.30
2022-09-02T03:11:57.174Z,70.68
2022-09-02T03:12:57.182Z,71.40
2022-09-02T03:13:57.203Z,71.20
2022-09-02T03:14:57.135Z,71.20
2022-09-02T03:15:57.077Z,70.68
2022-09-02T03:16:57.165Z,71.30
2022-09-02T03:17:56.999Z,71.09
2022-09-02T03:18:57.036Z,71.50
2022-09-02T03:19:56.993Z,71.60
2022-09-02T03:20:56.917Z,71.40
2022-09-02T03:21:56.895Z,70.99
2022-09-02T03:22:57.130Z,71.50
2022-09-02T03:23:57.960Z,71.70
2022-09-02T03:24:56.891Z,71.84
2022-09-02T03:25:57.026Z,72.34
2022-09-02T03:26:57.292Z,71.84
2022-09-02T03:27:56.863Z,71.53
2022-09-02T03:28:57.103Z,72.04
2022-09-02T03:29:56.932Z,72.14
2022-09-02T03:30:56.872Z,71.84
2022-09-02T03:31:56.812Z,71.94
2022-09-02T03:33:00.480Z,71.33
2022-09-02T03:33:57.051Z,71.53
2022-09-02T03:34:56.917Z,71.64
2022-09-02T03:35:56.749Z,72.65
2022-09-02T03:36:56.910Z,72.34
2022-09-02T03:37:57.462Z,72.45
2022-09-02T03:38:56.737Z,72.55
2022-09-02T03:39:56.893Z,72.45
2022-09-02T03:40:57.005Z,72.14
2022-09-02T03:41:56.785Z,71.73
2022-09-02T03:42:59.923Z,71.64
2022-09-02T03:43:56.736Z,72.14
2022-09-02T03:44:56.964Z,72.55
2022-09-02T03:45:56.750Z,72.14
2022-09-02T03:46:56.681Z,72.34
2022-09-02T03:47:56.642Z,72.75
2022-09-02T03:48:56.940Z,72.14
2022-09-02T03:49:56.700Z,72.65
2022-09-02T03:50:56.579Z,72.25
2022-09-02T03:51:56.753Z,71.84
2022-09-02T03:52:56.803Z,72.55
2022-09-02T03:53:56.703Z,72.55
2022-09-02T03:54:56.881Z,72.85
2022-09-02T03:55:56.806Z,72.55
2022-09-02T03:56:56.733Z,71.12
2022-09-02T03:57:56.690Z,72.14
2022-09-02T03:58:56.558Z,72.34
2022-09-02T03:59:56.599Z,72.25
2022-09-02T04:00:56.712Z,72.45
2022-09-02T04:01:56.906Z,71.12
2022-09-02T04:02:56.579Z,73.06
2022-09-02T04:03:56.722Z,72.55
2022-09-02T04:04:56.650Z,71.94
2022-09-02T04:05:56.475Z,72.04
2022-09-02T04:06:56.661Z,71.91
2022-09-02T04:07:56.683Z,71.70
2022-09-02T04:08:56.508Z,70.68
2022-09-02T04:09:56.422Z,70.59
2022-09-02T04:10:56.501Z,71.40
2022-09-02T04:11:56.400Z,71.70
2022-09-02T04:12:56.379Z,72.21
2022-09-02T04:13:56.400Z,71.70
2022-09-02T04:14:57.643Z,71.40
2022-09-02T04:15:59.796Z,70.38
2022-09-02T04:16:56.657Z,71.50
2022-09-02T04:17:56.386Z,71.40
2022-09-02T04:18:56.371Z,71.40
2022-09-02T04:19:56.401Z,71.30
2022-09-02T04:20:56.460Z,71.20
2022-09-02T04:21:56.328Z,71.91
2022-09-02T04:22:56.503Z,72.41
2022-09-02T04:23:56.444Z,69.98
2022-09-02T04:24:56.595Z,70.68
2022-09-02T04:25:56.326Z,70.79
2022-09-02T04:26:59.490Z,70.59
2022-09-02T04:27:56.249Z,71.09
2022-09-02T04:28:56.266Z,71.40
2022-09-02T04:29:56.199Z,71.50
2022-09-02T04:30:56.512Z,71.70
2022-09-02T04:31:56.202Z,71.20
2022-09-02T04:32:56.180Z,71.91
2022-09-02T04:33:56.205Z,71.50
2022-09-02T04:34:56.403Z,72.11
2022-09-02T04:35:56.333Z,71.20
2022-09-02T04:36:56.307Z,71.40
2022-09-02T04:37:56.389Z,71.91
2022-09-02T04:38:56.356Z,71.40
2022-09-02T04:39:56.372Z,70.79
2022-09-02T04:40:56.348Z,70.01
2022-09-02T04:41:56.308Z,70.82
2022-09-02T04:42:56.266Z,71.12
2022-09-02T04:43:56.070Z,72.14
2022-09-02T04:44:56.102Z,71.64
2022-09-02T04:45:56.077Z,71.73
2022-09-02T04:46:56.319Z,71.73
2022-09-02T04:47:56.071Z,71.03
2022-09-02T04:48:56.058Z,72.34
2022-09-02T04:49:56.286Z,71.84
2022-09-02T04:50:56.064Z,71.23
2022-09-02T04:51:56.140Z,71.94
2022-09-02T04:52:56.004Z,72.55
2022-09-02T04:53:55.982Z,72.04
2022-09-02T04:54:55.943Z,71.64
2022-09-02T04:55:58.036Z,71.73
2022-09-02T04:56:55.971Z,71.84
2022-09-02T04:57:55.950Z,71.94
2022-09-02T04:58:55.950Z,72.65
2022-09-02T04:59:56.036Z,72.96
2022-09-02T05:00:55.927Z,72.96
2022-09-02T05:01:56.075Z,72.25
2022-09-02T05:02:56.101Z,72.75
2022-09-02T05:03:55.888Z,72.04
2022-09-02T05:04:55.979Z,72.14
2022-09-02T05:05:55.855Z,72.75
2022-09-02T05:06:55.872Z,72.14
2022-09-02T05:07:55.965Z,71.73
2022-09-02T05:08:55.861Z,71.84
2022-09-02T05:09:55.934Z,71.03
2022-09-02T05:10:55.842Z,71.43
2022-09-02T05:11:55.809Z,72.14
2022-09-02T05:12:55.793Z,72.45
2022-09-02T05:13:55.797Z,72.34
2022-09-02T05:14:55.786Z,72.85
2022-09-02T05:15:55.846Z,72.45
2022-09-02T05:16:55.945Z,73.16
2022-09-02T05:17:55.756Z,72.89
2022-09-02T05:18:55.788Z,72.69
2022-09-02T05:19:56.057Z,72.65
2022-09-02T05:20:55.716Z,72.78
2022-09-02T05:21:55.883Z,72.65
2022-09-02T05:22:55.894Z,72.89
2022-09-02T05:23:55.692Z,72.99
2022-09-02T05:24:55.688Z,72.69
2022-09-02T05:25:55.701Z,73.46
2022-09-02T05:26:55.763Z,72.96
2022-09-02T05:27:55.707Z,71.43
2022-09-02T05:28:55.677Z,72.65
2022-09-02T05:29:55.836Z,73.06
2022-09-02T05:30:55.693Z,73.06
2022-09-02T05:31:55.691Z,73.46
2022-09-02T05:32:55.585Z,73.67
2022-09-02T05:33:55.607Z,73.36
2022-09-02T05:34:55.612Z,71.94
2022-09-02T05:35:55.686Z,73.36
2022-09-02T05:36:55.632Z,72.25
2022-09-02T05:38:00.239Z,72.85
2022-09-02T05:38:55.673Z,71.80
2022-09-02T05:39:55.562Z,72.31
2022-09-02T05:40:56.027Z,71.70
2022-09-02T05:41:55.782Z,73.33
2022-09-02T05:42:55.663Z,73.02
2022-09-02T05:43:55.462Z,72.11
2022-09-02T05:44:55.847Z,72.17
2022-09-02T05:45:55.656Z,72.28
2022-09-02T05:46:55.613Z,72.78
2022-09-02T05:47:55.702Z,72.38
2022-09-02T05:48:55.894Z,72.99
2022-09-02T05:49:55.638Z,71.88
2022-09-02T05:50:57.484Z,71.16
2022-09-02T05:51:55.407Z,71.84
2022-09-02T05:52:55.451Z,72.55
2022-09-02T05:53:55.448Z,71.64
2022-09-02T05:54:55.521Z,71.84
2022-09-02T05:55:55.568Z,71.84
2022-09-02T05:56:55.415Z,69.51
2022-09-02T05:57:55.342Z,70.48
2022-09-02T05:58:55.361Z,70.28
2022-09-02T05:59:55.369Z,69.68
2022-09-02T06:00:55.369Z,69.57
2022-09-02T06:01:55.487Z,70.18
2022-09-02T06:02:55.483Z,70.08
2022-09-02T06:03:55.363Z,69.27
2022-09-02T06:04:55.366Z,68.56
2022-09-02T06:05:55.376Z,70.08
2022-09-02T06:06:55.271Z,68.66
2022-09-02T06:07:55.258Z,67.55
2022-09-02T06:08:55.298Z,67.55
2022-09-02T06:09:55.278Z,67.75
2022-09-02T06:10:55.259Z,68.87
2022-09-02T06:11:55.255Z,69.47
2022-09-02T06:12:55.193Z,69.78
2022-09-02T06:13:55.186Z,69.68
2022-09-02T06:14:55.371Z,69.37
2022-09-02T06:15:55.469Z,69.37
2022-09-02T06:16:55.193Z,69.37
2022-09-02T06:17:55.136Z,69.47
2022-09-02T06:18:55.143Z,69.27
2022-09-02T06:19:55.145Z,69.37
2022-09-02T06:20:55.171Z,69.78
2022-09-02T06:21:55.090Z,69.68
2022-09-02T06:22:55.113Z,70.69
2022-09-02T06:23:55.177Z,69.17
2022-09-02T06:24:55.177Z,69.68
2022-09-02T06:25:55.101Z,69.07
2022-09-02T06:26:55.733Z,69.27
2022-09-02T06:27:55.048Z,70.39
2022-09-02T06:28:55.084Z,71.09
2022-09-02T06:29:55.034Z,70.48
2022-09-02T06:30:55.058Z,68.93
2022-09-02T06:31:55.027Z,69.84
2022-09-02T06:32:55.031Z,70.05
2022-09-02T06:33:55.018Z,70.15
2022-09-02T06:34:55.043Z,67.51
2022-09-02T06:35:55.001Z,67.08
2022-09-02T06:36:54.972Z,66.88
2022-09-02T06:37:54.938Z,67.38
2022-09-02T06:38:54.965Z,68.29
2022-09-02T06:39:55.943Z,68.60
2022-09-02T06:40:55.214Z,67.55
2022-09-02T06:41:55.033Z,68.16
2022-09-02T06:42:55.117Z,68.36
2022-09-02T06:43:54.893Z,68.36
2022-09-02T06:44:54.870Z,68.36
2022-09-02T06:45:55.133Z,68.02
2022-09-02T06:46:54.890Z,66.71
2022-09-02T06:47:54.885Z,66.41
2022-09-02T06:48:54.859Z,67.42
2022-09-02T06:49:55.038Z,65.47
2022-09-02T06:50:54.845Z,65.97
2022-09-02T06:51:54.814Z,66.07
2022-09-02T06:52:54.812Z,65.13
2022-09-02T06:53:54.798Z,65.43
2022-09-02T06:54:54.781Z,65.84
2022-09-02T06:55:54.966Z,65.00
2022-09-02T06:56:54.746Z,65.91
2022-09-02T06:57:54.780Z,65.67
2022-09-02T06:58:54.785Z,64.46
2022-09-02T07:00:00.028Z,63.65
2022-09-02T07:00:54.727Z,64.23
2022-09-02T07:01:54.883Z,64.94
2022-09-02T07:02:54.745Z,63.93
2022-09-02T07:03:54.708Z,64.50
2022-09-02T07:04:57.178Z,64.20
2022-09-02T07:05:54.665Z,64.50
2022-09-02T07:06:55.042Z,63.39
2022-09-02T07:07:54.668Z,62.85
2022-09-02T07:08:54.818Z,63.26
2022-09-02T07:09:54.619Z,64.07
2022-09-02T07:10:54.631Z,62.96
2022-09-02T07:11:54.615Z,62.76
2022-09-02T07:12:54.590Z,62.55
2022-09-02T07:13:54.609Z,63.36
2022-09-02T07:14:54.613Z,62.05
2022-09-02T07:15:54.594Z,62.85
2022-09-02T07:16:54.751Z,63.36
2022-09-02T07:17:54.541Z,62.65
2022-09-02T07:18:54.734Z,63.67
2022-09-02T07:19:54.513Z,62.85
2022-09-02T07:20:54.751Z,61.14
2022-09-02T07:21:54.521Z,62.28
2022-09-02T07:22:54.524Z,62.59
2022-09-02T07:23:54.641Z,62.68
2022-09-02T07:24:54.665Z,61.57
2022-09-02T07:25:54.485Z,62.48
2022-09-02T07:26:55.564Z,63.19
2022-09-02T07:27:54.636Z,61.17
2022-09-02T07:28:54.504Z,62.08
2022-09-02T07:29:54.640Z,62.08
2022-09-02T07:30:59.533Z,62.99
2022-09-02T07:31:54.479Z,63.59
2022-09-02T07:32:54.436Z,63.29
2022-09-02T07:33:54.383Z,63.49
2022-09-02T07:34:54.400Z,62.38
2022-09-02T07:35:54.677Z,63.06
2022-09-02T07:36:56.899Z,62.96
2022-09-02T07:37:54.539Z,62.45
2022-09-02T07:38:54.331Z,62.55
2022-09-02T07:39:54.318Z,61.52
2022-09-02T07:40:56.911Z,61.92
2022-09-02T07:41:54.306Z,62.83
2022-09-02T07:42:54.438Z,61.69
2022-09-02T07:43:56.370Z,61.08
2022-09-02T07:44:54.485Z,61.08
2022-09-02T07:45:54.373Z,61.89
2022-09-02T07:46:55.040Z,61.25
2022-09-02T07:47:54.426Z,59.55
2022-09-02T07:48:54.411Z,60.45
2022-09-02T07:50:54.408Z,60.25
2022-09-02T07:51:54.196Z,61.05
2022-09-02T07:52:54.346Z,59.84
2022-09-02T07:53:54.255Z,60.93
2022-09-02T07:54:54.201Z,60.42
2022-09-02T07:55:54.152Z,60.12
2022-09-02T07:56:54.240Z,60.02
2022-09-02T07:57:54.158Z,60.52
2022-09-02T07:58:54.151Z,60.19
2022-09-02T07:59:54.284Z,60.49
2022-09-02T08:00:54.186Z,60.97
2022-09-02T08:01:54.281Z,60.06
2022-09-02T08:02:54.291Z,58.62
2022-09-02T08:03:54.255Z,57.12
2022-09-02T08:04:54.389Z,58.53
2022-09-02T08:05:54.081Z,58.80
2022-09-02T08:06:54.239Z,58.50
2022-09-02T08:07:54.048Z,58.90
2022-09-02T08:08:54.023Z,56.79
2022-09-02T08:09:54.093Z,57.70
2022-09-02T08:10:54.493Z,56.99
2022-09-02T08:11:54.140Z,58.07
2022-09-02T08:12:54.110Z,58.77
2022-09-02T08:13:54.024Z,59.17
2022-09-02T08:14:53.987Z,58.27
2022-09-02T08:15:53.956Z,58.57
2022-09-02T08:16:54.109Z,56.96
2022-09-02T08:17:53.994Z,56.46
2022-09-02T08:18:54.047Z,56.96
2022-09-02T08:19:54.597Z,57.94
2022-09-02T08:20:54.045Z,55.93
2022-09-02T08:21:53.982Z,57.24
2022-09-02T08:23:05.045Z,57.51
2022-09-02T08:23:54.083Z,57.31
2022-09-02T08:24:53.869Z,57.18
2022-09-02T08:25:54.003Z,55.28
2022-09-02T08:26:54.642Z,57.48
2022-09-02T08:28:54.048Z,56.45
2022-09-02T08:29:53.830Z,55.35
2022-09-02T08:30:53.841Z,56.56
2022-09-02T08:31:54.294Z,56.73
2022-09-02T08:32:53.823Z,56.52
2022-09-02T08:33:54.009Z,56.33
2022-09-02T08:34:53.806Z,56.52
2022-09-02T08:35:53.768Z,57.63
2022-09-02T08:36:56.598Z,57.50
2022-09-02T08:37:53.785Z,57.00
2022-09-02T08:38:53.963Z,54.10
2022-09-02T08:39:53.756Z,55.50
2022-09-02T08:40:53.963Z,56.90
2022-09-02T08:41:53.767Z,57.00
2022-09-02T08:42:53.697Z,56.27
2022-09-02T08:43:53.671Z,56.67
2022-09-02T08:44:53.662Z,53.17
2022-09-02T08:45:53.731Z,55.24
2022-09-02T08:46:53.681Z,54.85
2022-09-02T08:47:53.719Z,54.94
2022-09-02T08:48:53.674Z,53.62
2022-09-02T08:49:53.637Z,52.82
2022-09-02T08:50:53.620Z,54.72
2022-09-02T08:51:54.012Z,54.90
2022-09-02T08:52:53.746Z,54.60
2022-09-02T08:53:53.679Z,54.60
2022-09-02T08:54:53.607Z,54.29
2022-09-02T08:55:53.553Z,53.59
2022-09-02T08:56:53.573Z,53.79
2022-09-02T08:57:53.588Z,54.10
2022-09-02T08:58:56.410Z,53.79
2022-09-02T08:59:53.544Z,53.77
2022-09-02T09:00:53.580Z,53.47
2022-09-02T09:01:53.606Z,52.87
2022-09-02T09:02:53.533Z,54.24
2022-09-02T09:03:53.924Z,53.54
2022-09-02T09:04:53.712Z,53.52
2022-09-02T09:05:53.466Z,53.12
2022-09-02T09:06:53.613Z,53.92
2022-09-02T09:07:53.657Z,52.79
2022-09-02T09:08:53.444Z,52.29
2022-09-02T09:09:53.431Z,51.79
2022-09-02T09:10:53.494Z,50.70
2022-09-02T09:11:53.505Z,53.12
2022-09-02T09:12:53.431Z,52.82
2022-09-02T09:13:53.428Z,52.82
2022-09-02T09:14:53.591Z,53.12
2022-09-02T09:15:53.372Z,54.11
2022-09-02T09:16:53.513Z,52.89
2022-09-02T09:17:53.341Z,52.99
2022-09-02T09:18:53.358Z,53.36
2022-09-02T09:19:53.511Z,52.74
2022-09-02T09:20:53.459Z,51.05
2022-09-02T09:21:53.303Z,51.82
2022-09-02T09:22:53.481Z,51.82
2022-09-02T09:23:53.494Z,51.52
2022-09-02T09:24:53.261Z,51.22
2022-09-02T09:25:53.477Z,50.60
2022-09-02T09:26:53.276Z,51.29
2022-09-02T09:27:53.380Z,50.02
2022-09-02T09:28:53.865Z,50.73
2022-09-02T09:29:53.319Z,51.72
2022-09-02T09:30:53.326Z,51.20
2022-09-02T09:31:53.319Z,51.00
2022-09-02T09:32:53.416Z,53.16
2022-09-02T09:33:53.446Z,50.38
2022-09-02T09:34:53.456Z,51.05
2022-09-02T09:35:53.315Z,51.45
2022-09-02T09:36:53.224Z,50.82
2022-09-02T09:37:53.376Z,47.84
2022-09-02T09:38:53.214Z,49.63
2022-09-02T09:39:53.223Z,48.96
2022-09-02T09:40:53.229Z,48.26
2022-09-02T09:41:53.149Z,48.79
2022-09-02T09:42:53.196Z,50.27
2022-09-02T09:43:53.236Z,50.27
2022-09-02T09:44:53.197Z,48.08
2022-09-02T09:45:53.171Z,49.98
2022-09-02T09:46:53.193Z,48.98
2022-09-02T09:47:53.256Z,52.14
2022-09-02T09:48:53.241Z,51.92
2022-09-02T09:49:53.075Z,50.31
2022-09-02T09:50:53.099Z,48.99
2022-09-02T09:51:53.061Z,49.68
2022-09-02T09:52:53.100Z,48.96
2022-09-02T09:53:53.031Z,50.56
2022-09-02T09:54:53.106Z,48.35
2022-09-02T09:55:53.008Z,48.52
2022-09-02T09:56:53.018Z,47.21
2022-09-02T09:57:52.962Z,48.99
2022-09-02T09:58:53.016Z,47.58
2022-09-02T09:59:52.983Z,46.84
2022-09-02T10:00:53.017Z,43.26
2022-09-02T10:01:53.001Z,46.80
2022-09-02T10:02:52.910Z,46.97
2022-09-02T10:03:52.914Z,45.29
2022-09-02T10:04:53.346Z,42.40
2022-09-02T10:05:52.871Z,43.98
2022-09-02T10:06:52.963Z,41.81
2022-09-02T10:07:52.918Z,42.92
2022-09-02T10:08:52.852Z,42.35
2022-09-02T10:09:52.866Z,42.98
2022-09-02T10:10:52.953Z,44.27
2022-09-02T10:11:52.954Z,44.46
2022-09-02T10:12:52.999Z,43.20
2022-09-02T10:13:52.924Z,46.09
2022-09-02T10:14:52.794Z,45.70
2022-09-02T10:15:52.888Z,45.23
2022-09-02T10:16:52.912Z,47.31
2022-09-02T10:17:52.841Z,46.71
2022-09-02T10:18:52.803Z,46.64
2022-09-02T10:19:52.783Z,46.95
2022-09-02T10:21:52.828Z,47.38
2022-09-02T10:22:59.800Z,47.17
2022-09-02T10:23:52.960Z,48.10
2022-09-02T10:24:52.780Z,49.29
2022-09-02T10:25:53.011Z,47.89
2022-09-02T10:26:52.748Z,48.91
2022-09-02T10:27:52.853Z,47.13
2022-09-02T10:28:52.966Z,47.05
2022-09-02T10:29:52.870Z,47.56
2022-09-02T10:30:52.666Z,47.96
2022-09-02T10:31:52.824Z,48.68
2022-09-02T10:32:52.732Z,48.38
2022-09-02T10:33:52.695Z,50.27
2022-09-02T10:34:52.762Z,51.37
2022-09-02T10:35:52.642Z,49.18
2022-09-02T10:36:52.766Z,49.01
2022-09-02T10:37:52.606Z,49.70
2022-09-02T10:38:52.660Z,48.80
2022-09-02T10:39:52.800Z,50.20
2022-09-02T10:40:52.891Z,50.00
2022-09-02T10:41:52.575Z,51.77
2022-09-02T10:42:52.670Z,50.48
2022-09-02T10:43:57.369Z,51.17
2022-09-02T10:44:56.936Z,50.78
2022-09-02T10:45:52.615Z,50.78
2022-09-02T10:46:52.655Z,50.65
2022-09-02T10:48:52.502Z,50.05
2022-09-02T10:49:52.471Z,49.04
2022-09-02T10:50:52.479Z,48.44
2022-09-02T10:51:52.483Z,50.23
2022-09-02T10:52:52.951Z,50.31
2022-09-02T10:53:52.943Z,50.08
2022-09-02T10:54:52.470Z,47.08
2022-09-02T10:55:52.610Z,48.13
2022-09-02T10:56:52.475Z,47.50
2022-09-02T10:57:52.459Z,45.38
2022-09-02T10:58:52.527Z,44.78
2022-09-02T10:59:52.655Z,43.79
2022-09-02T11:00:52.567Z,44.19
2022-09-02T11:01:52.716Z,43.91
2022-09-02T11:02:52.653Z,44.11
2022-09-02T11:03:52.435Z,45.03
2022-09-02T11:04:55.179Z,44.06
2022-09-02T11:05:52.428Z,45.74
2022-09-02T11:07:02.458Z,44.57
2022-09-02T11:07:52.387Z,45.39
2022-09-02T11:08:53.201Z,47.08
2022-09-02T11:09:52.308Z,46.88
2022-09-02T11:10:52.387Z,47.47
2022-09-02T11:11:52.835Z,45.81
2022-09-02T11:12:52.515Z,47.30
2022-09-02T11:13:52.266Z,47.30
2022-09-02T11:14:52.249Z,47.50
2022-09-02T11:15:52.659Z,47.30
2022-09-02T11:16:52.279Z,47.99
2022-09-02T11:17:52.235Z,45.81
2022-09-02T11:18:52.386Z,45.41
2022-09-02T11:19:52.239Z,45.14
2022-09-02T11:20:52.673Z,46.62
2022-09-02T11:21:52.186Z,47.30
2022-09-02T11:22:54.241Z,46.50
2022-09-02T11:23:52.180Z,47.50
2022-09-02T11:24:52.193Z,47.97
2022-09-02T11:25:52.152Z,47.28
2022-09-02T11:26:52.173Z,47.35
2022-09-02T11:27:52.251Z,46.95
2022-09-02T11:28:52.193Z,44.18
2022-09-02T11:29:52.091Z,44.57
2022-09-02T11:31:52.075Z,45.47
2022-09-02T11:32:52.133Z,44.87
2022-09-02T11:33:52.168Z,44.48
2022-09-02T11:34:52.117Z,44.37
2022-09-02T11:35:52.074Z,44.97
2022-09-02T11:36:52.033Z,44.87
2022-09-02T11:37:52.006Z,46.26
2022-09-02T11:38:52.021Z,44.18
2022-09-02T11:39:59.198Z,43.58
2022-09-02T11:41:52.774Z,46.19
2022-09-02T11:42:51.983Z,45.79
2022-09-02T11:43:52.006Z,43.60
2022-09-02T11:44:52.257Z,45.19
2022-09-02T11:45:51.952Z,44.97
2022-09-02T11:46:51.995Z,46.56
2022-09-02T11:47:51.898Z,43.98
2022-09-02T11:48:51.900Z,42.77
2022-09-02T11:49:52.240Z,40.60
2022-09-02T11:50:51.944Z,42.69
2022-09-02T11:51:51.880Z,41.99
2022-09-02T11:52:52.104Z,43.58
2022-09-02T11:53:54.911Z,43.66
2022-09-02T11:54:52.236Z,42.27
2022-09-02T11:55:51.812Z,41.38
2022-09-02T11:56:51.963Z,39.17
2022-09-02T11:57:51.960Z,41.36
2022-09-02T11:58:51.814Z,38.46
2022-09-02T11:59:52.008Z,40.44
2022-09-02T12:00:51.863Z,38.76
2022-09-02T12:01:52.042Z,38.66
2022-09-02T12:02:51.971Z,36.38
2022-09-02T12:04:34.486Z,38.07
2022-09-02T12:05:01.891Z,38.76
2022-09-02T12:05:51.938Z,40.74
2022-09-02T12:06:51.973Z,41.63
2022-09-02T12:07:51.791Z,41.22
2022-09-02T12:08:51.723Z,38.44
2022-09-02T12:09:51.764Z,40.82
2022-09-02T12:10:51.906Z,38.44
2022-09-02T12:11:51.672Z,38.05
2022-09-02T12:12:52.097Z,38.24
2022-09-02T12:13:51.665Z,37.15
2022-09-02T12:14:51.592Z,36.56
2022-09-02T12:15:51.835Z,36.56
2022-09-02T12:16:51.671Z,37.85
2022-09-02T12:17:51.852Z,36.86
2022-09-02T12:18:51.591Z,35.88
2022-09-02T12:19:51.562Z,36.58
2022-09-02T12:20:51.669Z,37.96
2022-09-02T12:21:52.525Z,35.60
2022-09-02T12:22:51.597Z,38.09
2022-09-02T12:23:51.534Z,38.98
2022-09-02T12:24:51.549Z,39.75
2022-09-02T12:25:51.530Z,38.94
2022-09-02T12:26:51.536Z,39.51
2022-09-02T12:27:51.502Z,38.11
2022-09-02T12:28:51.536Z,36.01
2022-09-02T12:29:52.168Z,37.58
2022-09-02T12:30:51.446Z,36.37
2022-09-02T12:31:51.725Z,35.58
2022-09-02T12:32:51.562Z,36.08
2022-09-02T12:33:51.437Z,34.71
2022-09-02T12:34:51.485Z,34.63
2022-09-02T12:35:51.442Z,34.01
2022-09-02T12:36:51.546Z,34.10
2022-09-02T12:37:51.408Z,34.78
2022-09-02T12:38:51.383Z,36.42
2022-09-02T12:39:51.628Z,33.44
2022-09-02T12:40:51.830Z,33.61
2022-09-02T12:41:51.561Z,32.70
2022-09-02T12:42:51.478Z,31.60
2022-09-02T12:43:51.420Z,30.91
2022-09-02T12:44:51.333Z,30.93
2022-09-02T12:45:51.307Z,31.62
2022-09-02T12:46:51.480Z,30.65
2022-09-02T12:47:51.407Z,31.44
2022-09-02T12:48:51.361Z,32.90
2022-09-02T12:49:51.474Z,32.03
2022-09-02T12:50:51.284Z,31.29
2022-09-02T12:51:51.315Z,33.77
2022-09-02T12:52:51.476Z,32.32
2022-09-02T12:53:51.517Z,32.55
2022-09-02T12:54:51.256Z,34.92
2022-09-02T12:55:51.363Z,36.01
2022-09-02T12:56:51.421Z,33.36
2022-09-02T12:57:51.222Z,34.86
2022-09-02T12:58:51.407Z,36.54